SAN weather

San Diego International Airport
San Diego, California, United States

Public forecast

Using degrees Fahrenheit for public forecast. Weather courtesy of forecast.io.

METAR (pilot weather report)

Retrieved 2017/08/18 01:51 UTC (31 minutes ago):

KSAN 180151Z 29008KT 10SM FEW020 22/16 A2998 RMK AO2 SLP153 T02220161

TAF (pilot weather forecast)

Forecast is more than 12 hours old.

Retrieved 2017/08/17 00:22 UTC (1 day ago):

TAF KSAN 172320Z 1800/1906 30009KT P6SM SKC FM180200 VRB04KT P6SM SCT015 FM180800 VRB02KT P6SM BKN012 FM181700 VRB04KT P6SM SCT015 FM181900 29010KT P6SM FEW015 FM190200 VRB04KT P6SM SCT012